Time;durP1;ratioP1;P1;durP2;ratioP2;P2;SDS_P1;SDS_P2;PMS_P1;PMS_P2;Temp;Humidity;BMP_temperature;BMP_pressure;BME280_temperature;BME280_humidity;BME280_pressure;Samples;Min_cycle;Max_cycle;Signal;HPM_P1;HPM_P2
2021/12/19 00:00:57;;;;;;;51.15;20.48;;;;;;;;;;4937755;29;20102;-66
2021/12/19 00:08:54;;;;;;;49.30;19.77;;;;;;;;;;4937542;29;20068;-66
2021/12/19 00:11:22;;;;;;;45.10;20.63;;;;;;;;;;4937380;29;20052;-66
2021/12/19 00:13:50;;;;;;;46.50;20.95;;;;;;;;;;4937476;29;20051;-66
2021/12/19 00:16:17;;;;;;;44.60;20.20;;;;;;;;;;4937517;29;20471;-66
2021/12/19 00:18:46;;;;;;;42.58;21.20;;;;;;;;;;4949985;28;20051;-66
2021/12/19 00:21:17;;;;;;;49.65;19.70;;;;;;;;;;4956426;28;20107;-66
2021/12/19 00:23:45;;;;;;;43.65;18.80;;;;;;;;;;4956450;28;20083;-66
2021/12/19 00:26:12;;;;;;;42.45;19.48;;;;;;;;;;4956441;28;20051;-66
2021/12/19 00:28:39;;;;;;;45.13;19.98;;;;;;;;;;4956466;28;20047;-66
2021/12/19 00:31:05;;;;;;;45.88;18.85;;;;;;;;;;4951346;29;20052;-66
2021/12/19 00:33:32;;;;;;;45.63;19.30;;;;;;;;;;4937085;29;20092;-66
2021/12/19 00:35:59;;;;;;;38.25;17.15;;;;;;;;;;4937104;29;20059;-66
2021/12/19 00:38:26;;;;;;;35.00;15.65;;;;;;;;;;4936935;29;20103;-66
2021/12/19 00:40:53;;;;;;;38.17;17.30;;;;;;;;;;4953412;29;20055;-66
2021/12/19 00:43:32;;;;;;;41.50;18.52;;;;;;;;;;4954688;28;20430;-66
2021/12/19 00:46:05;;;;;;;44.65;18.65;;;;;;;;;;4947963;28;20134;-66
2021/12/19 00:48:33;;;;;;;44.33;18.75;;;;;;;;;;4936970;29;20185;-66
2021/12/19 00:50:59;;;;;;;37.28;17.63;;;;;;;;;;4936910;29;20063;-66
2021/12/19 00:53:26;;;;;;;40.92;18.00;;;;;;;;;;4936130;29;20091;-66
2021/12/19 00:55:53;;;;;;;43.22;17.38;;;;;;;;;;4936751;29;20056;-66
2021/12/19 00:58:19;;;;;;;43.30;19.35;;;;;;;;;;4935391;29;20048;-66
2021/12/19 01:00:46;;;;;;;43.15;18.88;;;;;;;;;;4936755;29;20087;-66
2021/12/19 01:03:13;;;;;;;42.88;17.75;;;;;;;;;;4936283;29;20052;-66
2021/12/19 01:05:42;;;;;;;39.00;16.98;;;;;;;;;;4936744;29;20106;-66
2021/12/19 01:08:11;;;;;;;53.78;19.42;;;;;;;;;;4936321;29;20094;-66
2021/12/19 01:10:39;;;;;;;43.08;16.83;;;;;;;;;;4936470;29;20055;-66
2021/12/19 01:13:05;;;;;;;47.88;19.20;;;;;;;;;;4936239;29;20083;-66
2021/12/19 01:15:32;;;;;;;45.00;19.10;;;;;;;;;;4936571;29;20080;-66
2021/12/19 01:17:59;;;;;;;43.88;17.02;;;;;;;;;;4936169;29;20051;-66
2021/12/19 01:20:27;;;;;;;43.88;18.83;;;;;;;;;;4936264;29;20058;-66
2021/12/19 01:22:54;;;;;;;41.53;17.10;;;;;;;;;;4936255;29;20403;-66
2021/12/19 01:25:21;;;;;;;43.20;18.00;;;;;;;;;;4936388;29;20103;-66
2021/12/19 01:27:48;;;;;;;44.97;17.10;;;;;;;;;;4938713;29;20118;-66
2021/12/19 01:30:15;;;;;;;45.00;18.90;;;;;;;;;;4955341;28;20047;-66
2021/12/19 01:32:42;;;;;;;48.50;20.10;;;;;;;;;;4955140;28;20051;-66
2021/12/19 01:35:10;;;;;;;44.67;19.05;;;;;;;;;;4955407;28;20123;-66
2021/12/19 01:37:37;;;;;;;44.53;18.90;;;;;;;;;;4955236;28;20400;-66
2021/12/19 01:40:05;;;;;;;41.97;18.17;;;;;;;;;;4955052;28;20396;-66
2021/12/19 01:42:37;;;;;;;44.50;18.45;;;;;;;;;;4955073;28;20055;-66
2021/12/19 01:45:05;;;;;;;47.95;18.70;;;;;;;;;;4954944;28;20074;-66
2021/12/19 01:47:32;;;;;;;42.40;18.50;;;;;;;;;;4954739;28;20047;-66
2021/12/19 01:49:59;;;;;;;49.85;18.38;;;;;;;;;;4954822;28;20067;-66
2021/12/19 01:52:28;;;;;;;48.20;18.63;;;;;;;;;;4954804;28;20055;-66
2021/12/19 01:54:56;;;;;;;46.75;19.58;;;;;;;;;;4954400;28;20055;-66
2021/12/19 01:57:25;;;;;;;45.15;17.92;;;;;;;;;;4941660;28;20103;-66
2021/12/19 01:59:52;;;;;;;48.47;18.60;;;;;;;;;;4935396;29;20487;-66
2021/12/19 02:02:19;;;;;;;47.03;20.27;;;;;;;;;;4936092;29;20103;-66
2021/12/19 02:04:45;;;;;;;49.08;21.23;;;;;;;;;;4936809;29;20503;-66
2021/12/19 02:07:13;;;;;;;57.40;21.77;;;;;;;;;;4936541;29;20059;-66
2021/12/19 02:09:43;;;;;;;47.60;19.13;;;;;;;;;;4937875;29;20072;-67
2021/12/19 02:12:11;;;;;;;50.50;19.98;;;;;;;;;;4939866;29;20092;-67
2021/12/19 02:14:38;;;;;;;48.35;19.55;;;;;;;;;;4938608;29;20107;-67
2021/12/19 02:17:05;;;;;;;49.03;21.08;;;;;;;;;;4939892;29;20052;-67
2021/12/19 02:19:32;;;;;;;52.83;20.75;;;;;;;;;;4939531;29;20048;-67
2021/12/19 02:22:00;;;;;;;53.10;21.08;;;;;;;;;;4940457;29;20051;-67
2021/12/19 02:24:26;;;;;;;57.72;21.45;;;;;;;;;;4940041;29;20051;-67
2021/12/19 02:26:53;;;;;;;54.47;20.60;;;;;;;;;;4939960;29;20047;-67
2021/12/19 02:29:19;;;;;;;49.13;19.85;;;;;;;;;;4939994;29;20047;-67
2021/12/19 02:31:46;;;;;;;54.47;21.75;;;;;;;;;;4940181;29;20122;-67
2021/12/19 02:34:23;;;;;;;53.75;21.02;;;;;;;;;;4940985;29;20456;-67
2021/12/19 02:39:51;;;;;;;54.78;21.10;;;;;;;;;;4935026;29;20130;-66
2021/12/19 02:48:11;;;;;;;48.78;20.52;;;;;;;;;;4954042;28;20055;-66
2021/12/19 02:50:47;;;;;;;46.50;19.90;;;;;;;;;;4953956;28;20126;-66
2021/12/19 02:53:14;;;;;;;45.25;18.83;;;;;;;;;;4953883;28;20055;-66
2021/12/19 02:55:43;;;;;;;39.53;15.60;;;;;;;;;;4954044;28;20051;-66
2021/12/19 02:58:10;;;;;;;39.90;16.30;;;;;;;;;;4953722;28;20055;-66
2021/12/19 03:00:37;;;;;;;50.20;20.15;;;;;;;;;;4953821;28;20047;-66
2021/12/19 03:03:04;;;;;;;54.50;22.75;;;;;;;;;;4968627;28;20057;-66
2021/12/19 03:05:32;;;;;;;58.42;20.40;;;;;;;;;;4953339;28;20561;-66
2021/12/19 03:08:00;;;;;;;60.88;22.60;;;;;;;;;;4953471;28;20047;-65
2021/12/19 03:18:18;;;;;;;56.35;20.08;;;;;;;;;;4953512;29;20051;-65
2021/12/19 03:20:45;;;;;;;58.15;20.75;;;;;;;;;;4953541;28;20154;-65
2021/12/19 03:23:13;;;;;;;53.00;21.05;;;;;;;;;;4953463;28;20052;-65
2021/12/19 03:25:40;;;;;;;55.08;22.95;;;;;;;;;;4954668;28;20051;-65
2021/12/19 03:28:08;;;;;;;56.58;22.13;;;;;;;;;;4953439;28;20051;-64
2021/12/19 03:30:36;;;;;;;55.65;21.45;;;;;;;;;;4953358;28;20067;-64
2021/12/19 03:33:02;;;;;;;60.28;22.67;;;;;;;;;;4953500;28;20055;-64
2021/12/19 03:35:30;;;;;;;57.20;22.23;;;;;;;;;;4953484;28;20102;-64
2021/12/19 03:37:58;;;;;;;57.95;22.77;;;;;;;;;;4953251;28;20561;-64
2021/12/19 03:40:35;;;;;;;62.85;23.77;;;;;;;;;;4953372;28;20078;-64
2021/12/19 03:43:16;;;;;;;64.78;23.92;;;;;;;;;;4953497;28;20430;-64
2021/12/19 03:45:44;;;;;;;74.43;25.77;;;;;;;;;;4953344;28;20565;-65
2021/12/19 03:48:13;;;;;;;68.97;24.52;;;;;;;;;;4938281;28;20059;-64
2021/12/19 03:50:43;;;;;;;71.10;25.77;;;;;;;;;;4938618;29;20051;-65
2021/12/19 03:53:10;;;;;;;70.78;26.80;;;;;;;;;;4953232;28;20051;-65
2021/12/19 03:55:37;;;;;;;68.18;25.85;;;;;;;;;;4953315;28;20490;-65
2021/12/19 03:58:04;;;;;;;60.90;23.50;;;;;;;;;;4937947;28;20084;-65
2021/12/19 04:00:32;;;;;;;63.45;23.42;;;;;;;;;;4934004;29;20047;-64
2021/12/19 04:03:03;;;;;;;59.40;22.10;;;;;;;;;;4933960;29;20079;-65
2021/12/19 04:05:31;;;;;;;70.38;25.08;;;;;;;;;;4934125;29;20450;-64
2021/12/19 04:07:57;;;;;;;57.97;23.15;;;;;;;;;;4933882;29;20051;-64
2021/12/19 04:10:27;;;;;;;61.17;23.08;;;;;;;;;;4932703;29;20052;-64
2021/12/19 04:12:54;;;;;;;63.53;24.08;;;;;;;;;;4933838;29;20055;-65
2021/12/19 04:15:22;;;;;;;66.60;25.17;;;;;;;;;;4933854;29;20056;-64
2021/12/19 04:17:48;;;;;;;67.63;25.90;;;;;;;;;;4935394;29;20055;-64
2021/12/19 04:20:15;;;;;;;59.13;24.23;;;;;;;;;;4937534;29;20055;-64
2021/12/19 04:22:42;;;;;;;69.90;26.60;;;;;;;;;;4937377;29;20455;-65
2021/12/19 04:25:10;;;;;;;71.72;27.33;;;;;;;;;;4937332;29;20059;-64
2021/12/19 04:27:36;;;;;;;74.00;25.33;;;;;;;;;;4937121;29;20126;-64
2021/12/19 04:30:05;;;;;;;71.53;25.65;;;;;;;;;;4937413;29;20095;-64
2021/12/19 04:32:37;;;;;;;66.65;24.25;;;;;;;;;;4937016;29;20106;-64
2021/12/19 04:35:04;;;;;;;63.80;23.90;;;;;;;;;;4936116;29;20111;-64
2021/12/19 04:40:27;;;;;;;65.22;24.83;;;;;;;;;;4951621;29;20418;-64
2021/12/19 04:51:36;;;;;;;55.47;20.40;;;;;;;;;;4956149;29;20051;-65
2021/12/19 05:15:29;;;;;;;41.40;15.73;;;;;;;;;;4955451;29;20043;-65
2021/12/19 05:18:03;;;;;;;42.00;16.08;;;;;;;;;;4954901;28;20097;-64
2021/12/19 05:20:30;;;;;;;42.67;15.38;;;;;;;;;;4969508;28;20054;-65
2021/12/19 05:23:07;;;;;;;38.63;14.00;;;;;;;;;;4949318;28;20106;-65
2021/12/19 05:25:34;;;;;;;33.17;13.30;;;;;;;;;;4955120;28;20043;-64
2021/12/19 05:28:01;;;;;;;28.38;11.60;;;;;;;;;;4954797;28;20051;-65
2021/12/19 05:30:28;;;;;;;32.70;12.80;;;;;;;;;;4953983;28;20051;-65
2021/12/19 05:32:55;;;;;;;26.27;11.77;;;;;;;;;;4954752;28;20055;-65
2021/12/19 05:35:42;;;;;;;25.13;10.02;;;;;;;;;;4954673;28;20043;-65
2021/12/19 05:46:27;;;;;;;24.30;10.80;;;;;;;;;;4954906;28;20058;-65
2021/12/19 05:48:53;;;;;;;20.92;9.18;;;;;;;;;;4955019;28;20098;-65
2021/12/19 05:51:20;;;;;;;19.98;8.60;;;;;;;;;;4954971;28;20474;-65
2021/12/19 05:53:47;;;;;;;28.40;10.15;;;;;;;;;;4954777;28;20122;-65
2021/12/19 05:56:13;;;;;;;25.67;10.50;;;;;;;;;;4954698;28;20058;-65
2021/12/19 05:58:40;;;;;;;28.27;10.57;;;;;;;;;;4946422;28;20462;-65
2021/12/19 06:01:07;;;;;;;28.95;11.60;;;;;;;;;;4945888;29;20098;-65
2021/12/19 06:03:33;;;;;;;22.85;10.15;;;;;;;;;;4954655;29;20110;-65
2021/12/19 06:06:00;;;;;;;23.75;10.48;;;;;;;;;;4954688;29;20062;-65
2021/12/19 06:08:27;;;;;;;23.08;8.40;;;;;;;;;;4954419;28;20536;-65
2021/12/19 06:10:53;;;;;;;18.30;8.05;;;;;;;;;;4946462;28;20040;-65
2021/12/19 06:13:20;;;;;;;17.05;8.52;;;;;;;;;;4935149;29;20115;-64
2021/12/19 06:15:50;;;;;;;24.00;9.48;;;;;;;;;;4935244;29;20111;-65
2021/12/19 06:18:17;;;;;;;18.63;8.25;;;;;;;;;;4935007;29;20048;-65
2021/12/19 06:20:44;;;;;;;18.02;8.55;;;;;;;;;;4935266;29;20048;-65
2021/12/19 06:23:11;;;;;;;20.75;8.75;;;;;;;;;;4942382;29;20499;-64
2021/12/19 06:25:45;;;;;;;18.60;7.78;;;;;;;;;;4954348;28;20319;-65
2021/12/19 06:28:13;;;;;;;24.10;8.50;;;;;;;;;;4954194;28;20336;-64
2021/12/19 06:30:40;;;;;;;20.30;8.60;;;;;;;;;;4954265;28;20478;-65
2021/12/19 06:33:06;;;;;;;19.77;8.20;;;;;;;;;;4954165;28;20118;-64
2021/12/19 06:35:33;;;;;;;21.73;8.57;;;;;;;;;;4954034;28;20059;-64
2021/12/19 06:38:00;;;;;;;21.77;9.43;;;;;;;;;;4954032;28;20059;-65
2021/12/19 06:40:27;;;;;;;25.45;11.00;;;;;;;;;;4953929;28;20047;-65
2021/12/19 06:42:54;;;;;;;21.85;10.52;;;;;;;;;;4953975;28;20466;-64
2021/12/19 06:45:22;;;;;;;27.40;11.85;;;;;;;;;;4953908;28;20055;-65
2021/12/19 06:47:49;;;;;;;24.00;10.23;;;;;;;;;;4943355;28;20056;-64
2021/12/19 06:50:20;;;;;;;26.00;11.00;;;;;;;;;;4934825;29;20054;-64
2021/12/19 06:52:47;;;;;;;26.17;10.65;;;;;;;;;;4934631;29;20052;-64
2021/12/19 06:55:15;;;;;;;24.73;10.75;;;;;;;;;;4934689;29;20106;-64
2021/12/19 06:57:42;;;;;;;26.75;11.20;;;;;;;;;;4934967;29;20110;-65
2021/12/19 07:00:21;;;;;;;23.33;10.45;;;;;;;;;;4942498;29;20102;-65
2021/12/19 07:02:48;;;;;;;25.65;11.18;;;;;;;;;;4953708;28;20115;-65
2021/12/19 07:05:15;;;;;;;21.08;9.13;;;;;;;;;;4953713;28;20442;-65
2021/12/19 07:07:41;;;;;;;25.60;9.80;;;;;;;;;;4953673;29;20059;-65
2021/12/19 07:10:08;;;;;;;25.55;10.80;;;;;;;;;;4953655;28;20082;-65
2021/12/19 07:12:35;;;;;;;23.75;10.82;;;;;;;;;;4939951;28;20574;-65
2021/12/19 07:15:02;;;;;;;23.13;9.23;;;;;;;;;;4934563;29;20052;-65
2021/12/19 07:17:29;;;;;;;25.20;9.82;;;;;;;;;;4934199;29;20396;-65
2021/12/19 07:19:55;;;;;;;24.40;9.93;;;;;;;;;;4934421;29;20058;-65
2021/12/19 07:22:22;;;;;;;18.92;9.10;;;;;;;;;;4934525;29;20107;-65
2021/12/19 07:24:48;;;;;;;24.60;9.48;;;;;;;;;;4934238;29;20059;-65
2021/12/19 07:27:15;;;;;;;20.45;8.43;;;;;;;;;;4934079;29;20570;-65
2021/12/19 07:29:42;;;;;;;17.63;7.80;;;;;;;;;;4934317;29;20052;-65
2021/12/19 07:32:10;;;;;;;21.27;8.77;;;;;;;;;;4933147;29;20051;-64
2021/12/19 07:34:38;;;;;;;22.05;10.13;;;;;;;;;;4934227;29;20442;-65
2021/12/19 07:37:05;;;;;;;30.45;13.27;;;;;;;;;;4934304;29;20495;-65
2021/12/19 07:42:05;;;;;;;20.00;8.25;;;;;;;;;;4934290;29;20476;-65
2021/12/19 07:44:32;;;;;;;24.83;9.35;;;;;;;;;;4934101;29;20196;-65
2021/12/19 07:46:59;;;;;;;18.65;8.68;;;;;;;;;;4934305;29;20095;-65
2021/12/19 07:49:25;;;;;;;18.40;8.15;;;;;;;;;;4933943;29;20103;-65
2021/12/19 07:51:52;;;;;;;20.75;9.52;;;;;;;;;;4934496;29;20511;-64
2021/12/19 07:54:18;;;;;;;18.80;8.70;;;;;;;;;;4954637;29;20051;-64
2021/12/19 07:56:46;;;;;;;18.13;8.05;;;;;;;;;;4957137;28;20047;-64
2021/12/19 07:59:13;;;;;;;20.95;9.52;;;;;;;;;;4956751;28;20051;-65
2021/12/19 08:01:40;;;;;;;21.98;9.40;;;;;;;;;;4956978;29;20079;-65
2021/12/19 08:04:06;;;;;;;18.33;8.63;;;;;;;;;;4951330;28;20051;-66
2021/12/19 08:06:33;;;;;;;19.63;9.77;;;;;;;;;;4953350;28;20417;-66
2021/12/19 08:09:10;;;;;;;21.73;8.38;;;;;;;;;;4970578;28;20047;-65
2021/12/19 08:11:40;;;;;;;19.95;9.73;;;;;;;;;;4970648;28;20469;-65
2021/12/19 08:14:08;;;;;;;19.08;8.23;;;;;;;;;;4974297;28;20494;-65
2021/12/19 08:16:35;;;;;;;16.13;7.68;;;;;;;;;;4971250;28;20054;-66
2021/12/19 08:19:03;;;;;;;23.85;10.88;;;;;;;;;;4963606;28;20054;-66
2021/12/19 08:21:29;;;;;;;27.60;16.63;;;;;;;;;;4971323;28;20101;-66
2021/12/19 08:23:59;;;;;;;19.98;9.40;;;;;;;;;;4971953;28;20054;-65
2021/12/19 08:26:26;;;;;;;18.38;8.30;;;;;;;;;;4971351;28;20050;-66
2021/12/19 08:28:53;;;;;;;18.88;9.68;;;;;;;;;;4971397;28;20055;-66
2021/12/19 08:31:19;;;;;;;21.45;10.88;;;;;;;;;;4972073;28;20494;-66
2021/12/19 08:33:46;;;;;;;18.05;8.52;;;;;;;;;;4971988;28;20051;-66
2021/12/19 08:36:14;;;;;;;13.50;6.68;;;;;;;;;;4971894;28;20516;-65
2021/12/19 08:38:41;;;;;;;12.48;6.18;;;;;;;;;;4971755;28;20065;-65
2021/12/19 08:41:08;;;;;;;14.88;6.93;;;;;;;;;;4971270;28;20101;-66
2021/12/19 08:43:34;;;;;;;13.65;6.28;;;;;;;;;;4971512;28;20074;-65
2021/12/19 08:46:01;;;;;;;13.93;6.60;;;;;;;;;;4971967;28;20565;-65
2021/12/19 08:48:27;;;;;;;14.23;6.18;;;;;;;;;;4971118;28;20267;-65
2021/12/19 08:50:54;;;;;;;13.73;6.60;;;;;;;;;;4971472;28;20053;-66
2021/12/19 08:53:20;;;;;;;13.02;6.25;;;;;;;;;;4970896;28;20133;-66
2021/12/19 08:55:47;;;;;;;12.95;6.32;;;;;;;;;;4964700;28;20050;-65
2021/12/19 08:58:14;;;;;;;12.20;6.10;;;;;;;;;;4969128;28;20054;-66
2021/12/19 09:00:40;;;;;;;11.80;5.88;;;;;;;;;;4971293;28;20105;-66
2021/12/19 09:03:08;;;;;;;10.80;5.28;;;;;;;;;;4968747;28;20054;-66
2021/12/19 09:05:36;;;;;;;11.82;6.53;;;;;;;;;;4970632;28;20421;-65
2021/12/19 09:08:02;;;;;;;11.15;6.20;;;;;;;;;;4970967;28;20109;-66
2021/12/19 09:10:29;;;;;;;10.45;5.40;;;;;;;;;;4971060;28;20473;-66
2021/12/19 09:12:57;;;;;;;11.95;6.45;;;;;;;;;;4968762;28;20109;-66
2021/12/19 09:15:24;;;;;;;10.85;5.97;;;;;;;;;;4970337;28;20055;-66
2021/12/19 09:17:51;;;;;;;12.57;6.00;;;;;;;;;;4973169;28;20097;-67
2021/12/19 09:20:17;;;;;;;13.18;5.78;;;;;;;;;;4972351;28;20057;-66
2021/12/19 09:22:44;;;;;;;12.95;7.05;;;;;;;;;;4973321;28;20124;-66
2021/12/19 09:25:19;;;;;;;14.48;6.97;;;;;;;;;;4972776;28;20047;-66
2021/12/19 09:27:46;;;;;;;10.43;5.90;;;;;;;;;;4972835;28;20106;-69
2021/12/19 09:30:13;;;;;;;14.30;7.53;;;;;;;;;;4971239;28;20568;-67
2021/12/19 09:32:40;;;;;;;12.13;6.70;;;;;;;;;;4972739;28;20054;-68
2021/12/19 09:35:07;;;;;;;14.95;6.50;;;;;;;;;;4969438;28;20106;-69
2021/12/19 09:37:35;;;;;;;11.18;5.90;;;;;;;;;;4971384;28;20534;-69
2021/12/19 09:40:06;;;;;;;13.45;5.97;;;;;;;;;;4969507;28;20110;-68
2021/12/19 09:42:35;;;;;;;11.18;5.38;;;;;;;;;;4970848;28;20107;-67
2021/12/19 09:45:03;;;;;;;8.38;4.60;;;;;;;;;;4973094;28;20059;-68
2021/12/19 09:47:30;;;;;;;9.73;5.05;;;;;;;;;;4972377;28;20051;-68
2021/12/19 09:49:59;;;;;;;8.20;3.88;;;;;;;;;;4966431;28;20047;-67
2021/12/19 09:52:28;;;;;;;7.75;4.25;;;;;;;;;;4968845;28;20046;-68
2021/12/19 09:54:54;;;;;;;7.47;4.30;;;;;;;;;;4972439;28;20047;-67
2021/12/19 09:57:21;;;;;;;8.13;5.10;;;;;;;;;;4965681;28;20054;-73
2021/12/19 09:59:48;;;;;;;8.65;4.65;;;;;;;;;;4965325;28;20555;-70
2021/12/19 10:02:16;;;;;;;7.35;4.72;;;;;;;;;;4977063;28;20113;-69
2021/12/19 10:04:44;;;;;;;9.15;5.55;;;;;;;;;;4959131;28;20085;-68
2021/12/19 10:07:18;;;;;;;8.10;4.28;;;;;;;;;;4972391;28;20487;-70
2021/12/19 10:10:13;;;;;;;7.10;4.68;;;;;;;;;;4972612;28;20053;-69
2021/12/19 10:15:13;;;;;;;9.70;5.47;;;;;;;;;;4964500;28;20109;-70
2021/12/19 10:17:40;;;;;;;9.73;4.53;;;;;;;;;;4969512;28;20065;-69
2021/12/19 10:20:09;;;;;;;8.23;4.20;;;;;;;;;;4968727;28;20051;-67
2021/12/19 10:22:44;;;;;;;7.53;4.53;;;;;;;;;;4968818;28;20050;-67
2021/12/19 10:25:19;;;;;;;8.43;5.03;;;;;;;;;;4971700;28;20054;-67
2021/12/19 10:27:56;;;;;;;7.65;5.07;;;;;;;;;;4959299;28;20102;-68
2021/12/19 10:30:34;;;;;;;5.57;3.72;;;;;;;;;;4967947;28;20403;-67
2021/12/19 10:33:13;;;;;;;6.28;4.25;;;;;;;;;;4971726;28;20781;-67
2021/12/19 10:35:40;;;;;;;6.25;3.75;;;;;;;;;;4970247;28;20501;-67
2021/12/19 10:38:25;;;;;;;12.02;5.20;;;;;;;;;;4970790;28;20059;-67
2021/12/19 10:40:53;;;;;;;16.02;6.03;;;;;;;;;;4970787;28;20505;-67
2021/12/19 10:43:20;;;;;;;13.45;5.43;;;;;;;;;;4969389;28;20502;-67
2021/12/19 10:45:52;;;;;;;8.75;4.32;;;;;;;;;;4962902;28;20059;-66
2021/12/19 10:48:25;;;;;;;13.48;4.85;;;;;;;;;;4971119;28;20125;-66
2021/12/19 10:50:55;;;;;;;14.40;9.43;;;;;;;;;;4979472;28;20125;-67
2021/12/19 10:53:42;;;;;;;7.53;4.43;;;;;;;;;;4968620;28;20619;-67
2021/12/19 10:56:13;;;;;;;6.25;3.13;;;;;;;;;;4971358;28;20109;-66
2021/12/19 10:58:45;;;;;;;4.30;2.88;;;;;;;;;;4964418;28;20050;-67
2021/12/19 11:01:18;;;;;;;10.90;5.10;;;;;;;;;;4968276;28;20097;-67
2021/12/19 11:04:00;;;;;;;7.45;4.32;;;;;;;;;;4968715;28;20057;-66
2021/12/19 11:06:39;;;;;;;8.40;3.78;;;;;;;;;;4966258;28;20047;-67
2021/12/19 11:09:21;;;;;;;6.25;3.78;;;;;;;;;;4969559;28;20117;-67
2021/12/19 11:11:55;;;;;;;9.65;4.22;;;;;;;;;;4958925;28;20076;-67
2021/12/19 11:14:23;;;;;;;7.90;4.25;;;;;;;;;;4986139;28;20105;-67
2021/12/19 11:16:54;;;;;;;6.95;3.63;;;;;;;;;;4970083;28;20066;-67
2021/12/19 11:19:21;;;;;;;6.70;3.88;;;;;;;;;;4964798;28;20050;-68
2021/12/19 11:22:09;;;;;;;5.13;3.75;;;;;;;;;;4967743;28;20142;-67
2021/12/19 11:24:36;;;;;;;7.75;3.97;;;;;;;;;;4968870;28;20047;-68
2021/12/19 11:27:07;;;;;;;6.55;3.60;;;;;;;;;;4968907;28;20055;-74
2021/12/19 11:29:34;;;;;;;5.85;3.65;;;;;;;;;;4962664;28;20105;-69
2021/12/19 11:32:04;;;;;;;11.05;5.07;;;;;;;;;;4975118;28;20133;-68
2021/12/19 11:34:57;;;;;;;5.60;3.55;;;;;;;;;;4974682;28;20105;-72
2021/12/19 11:37:45;;;;;;;7.68;4.47;;;;;;;;;;4969874;28;20058;-69
2021/12/19 11:40:17;;;;;;;4.45;3.38;;;;;;;;;;4965928;28;20054;-69
2021/12/19 11:42:44;;;;;;;5.82;3.92;;;;;;;;;;4956575;28;20042;-68
2021/12/19 11:47:57;;;;;;;5.65;3.63;;;;;;;;;;4970834;28;20063;-66
2021/12/19 11:50:28;;;;;;;4.72;3.55;;;;;;;;;;4974752;28;20113;-68
2021/12/19 11:53:18;;;;;;;4.00;3.30;;;;;;;;;;4969989;28;20405;-67
2021/12/19 11:55:48;;;;;;;4.93;4.00;;;;;;;;;;4967233;28;20102;-69
2021/12/19 11:58:18;;;;;;;4.00;3.05;;;;;;;;;;4972979;28;20043;-69
2021/12/19 12:00:55;;;;;;;5.18;3.70;;;;;;;;;;4972088;28;20078;-66
2021/12/19 12:03:24;;;;;;;5.40;3.53;;;;;;;;;;4973460;28;20187;-69
2021/12/19 12:05:58;;;;;;;5.38;3.80;;;;;;;;;;4974204;28;20536;-69
2021/12/19 12:08:26;;;;;;;4.10;3.35;;;;;;;;;;4972950;28;20051;-69
2021/12/19 12:10:57;;;;;;;7.75;4.38;;;;;;;;;;4967551;28;20069;-70
2021/12/19 12:13:27;;;;;;;3.75;3.10;;;;;;;;;;4952972;28;20050;-70
2021/12/19 12:16:06;;;;;;;5.88;3.33;;;;;;;;;;4975285;28;20101;-70
2021/12/19 12:18:34;;;;;;;5.10;3.75;;;;;;;;;;4973159;28;20051;-68
2021/12/19 12:24:02;;;;;;;5.57;3.88;;;;;;;;;;4973981;28;20043;-67
2021/12/19 12:26:41;;;;;;;8.17;4.97;;;;;;;;;;4973086;28;20113;-68
2021/12/19 12:29:08;;;;;;;9.20;4.95;;;;;;;;;;4966132;28;20577;-67
2021/12/19 12:31:36;;;;;;;6.82;4.20;;;;;;;;;;4970860;28;20109;-68
2021/12/19 12:34:03;;;;;;;5.65;4.43;;;;;;;;;;4968042;28;20051;-66
2021/12/19 12:36:30;;;;;;;7.03;5.10;;;;;;;;;;4967850;28;20611;-68
2021/12/19 12:38:56;;;;;;;5.72;4.50;;;;;;;;;;4971847;28;20043;-67
2021/12/19 12:44:09;;;;;;;6.45;5.28;;;;;;;;;;4965445;28;20473;-67
2021/12/19 12:46:36;;;;;;;6.65;5.53;;;;;;;;;;4969491;28;20816;-67
2021/12/19 12:49:03;;;;;;;6.93;5.80;;;;;;;;;;4970188;28;20121;-67
2021/12/19 12:51:38;;;;;;;6.93;5.63;;;;;;;;;;4968180;28;20047;-66
2021/12/19 12:54:10;;;;;;;5.95;4.70;;;;;;;;;;4970310;28;20109;-65
2021/12/19 12:56:43;;;;;;;7.00;4.90;;;;;;;;;;4964708;28;20055;-66
2021/12/19 12:59:11;;;;;;;7.93;5.80;;;;;;;;;;4970328;28;20047;-66
2021/12/19 13:01:42;;;;;;;7.43;5.85;;;;;;;;;;4970951;28;20051;-67
2021/12/19 13:04:27;;;;;;;8.38;5.78;;;;;;;;;;4983010;28;20121;-66
2021/12/19 13:07:12;;;;;;;7.85;6.10;;;;;;;;;;4969136;28;20105;-67
2021/12/19 13:09:49;;;;;;;7.40;5.78;;;;;;;;;;4971423;28;20055;-68
2021/12/19 13:12:20;;;;;;;8.63;6.70;;;;;;;;;;4978876;28;20078;-67
2021/12/19 13:15:04;;;;;;;9.07;6.53;;;;;;;;;;4994194;28;20058;-66
2021/12/19 13:17:34;;;;;;;9.25;6.72;;;;;;;;;;4992141;28;20043;-64
2021/12/19 13:20:06;;;;;;;8.35;5.88;;;;;;;;;;4994047;28;20057;-66
2021/12/19 13:22:48;;;;;;;9.15;6.57;;;;;;;;;;4992760;28;20051;-64
2021/12/19 13:25:23;;;;;;;7.63;5.43;;;;;;;;;;4989727;28;20058;-64
2021/12/19 13:27:57;;;;;;;9.05;6.07;;;;;;;;;;4991782;28;20290;-65
2021/12/19 13:30:27;;;;;;;10.45;6.90;;;;;;;;;;4996521;28;20038;-65
2021/12/19 13:33:00;;;;;;;9.02;6.57;;;;;;;;;;4994308;28;20258;-65
2021/12/19 13:35:31;;;;;;;8.60;5.90;;;;;;;;;;4996370;28;20035;-65
2021/12/19 13:38:05;;;;;;;11.77;6.93;;;;;;;;;;4993515;28;20082;-64
2021/12/19 13:40:34;;;;;;;9.80;6.70;;;;;;;;;;4994306;28;20047;-64
2021/12/19 13:43:04;;;;;;;11.75;8.13;;;;;;;;;;4989011;28;20034;-65
2021/12/19 13:45:49;;;;;;;11.68;7.57;;;;;;;;;;4991686;28;20108;-65
2021/12/19 13:48:18;;;;;;;12.38;8.38;;;;;;;;;;4984070;28;20047;-67
2021/12/19 13:50:49;;;;;;;11.57;8.57;;;;;;;;;;4959343;28;20072;-66
2021/12/19 13:53:16;;;;;;;13.60;8.95;;;;;;;;;;4956329;28;20406;-67
2021/12/19 13:55:47;;;;;;;12.05;8.05;;;;;;;;;;4958281;28;20047;-67
2021/12/19 13:58:14;;;;;;;12.10;8.45;;;;;;;;;;4961701;28;20502;-67
2021/12/19 14:00:43;;;;;;;16.63;9.95;;;;;;;;;;4963222;28;20063;-65
2021/12/19 14:03:10;;;;;;;15.32;9.85;;;;;;;;;;4961344;28;20506;-67
2021/12/19 14:05:47;;;;;;;15.35;10.32;;;;;;;;;;4970257;28;20061;-66
2021/12/19 14:08:26;;;;;;;15.20;10.45;;;;;;;;;;4963706;28;20059;-67
2021/12/19 14:11:09;;;;;;;19.02;12.02;;;;;;;;;;4967797;28;20046;-67
2021/12/19 14:13:37;;;;;;;16.33;10.63;;;;;;;;;;4967319;28;20101;-66
2021/12/19 14:16:11;;;;;;;18.52;11.65;;;;;;;;;;4966626;28;20113;-66
2021/12/19 14:18:40;;;;;;;18.20;12.18;;;;;;;;;;4967334;28;20584;-66
2021/12/19 14:21:34;;;;;;;21.35;13.13;;;;;;;;;;4969882;28;20046;-66
2021/12/19 14:24:13;;;;;;;22.95;12.70;;;;;;;;;;4968767;28;20047;-66
2021/12/19 14:26:41;;;;;;;21.70;11.40;;;;;;;;;;4964522;28;20047;-66
2021/12/19 14:29:17;;;;;;;20.15;12.70;;;;;;;;;;4962074;28;20439;-66
2021/12/19 14:31:49;;;;;;;15.05;10.30;;;;;;;;;;4969593;28;20394;-66
2021/12/19 14:34:18;;;;;;;15.45;10.07;;;;;;;;;;4979748;28;20043;-65
2021/12/19 14:36:45;;;;;;;13.50;8.82;;;;;;;;;;4993958;28;20055;-65
2021/12/19 14:39:15;;;;;;;12.75;8.40;;;;;;;;;;4992387;28;20059;-65
2021/12/19 14:41:42;;;;;;;12.52;8.63;;;;;;;;;;4993014;28;20047;-64
2021/12/19 14:44:22;;;;;;;12.32;8.88;;;;;;;;;;4990622;28;20058;-65
2021/12/19 14:46:49;;;;;;;17.83;10.45;;;;;;;;;;4989710;28;20051;-64
2021/12/19 14:49:16;;;;;;;12.05;8.55;;;;;;;;;;4986506;28;20043;-65
2021/12/19 14:51:42;;;;;;;14.70;9.90;;;;;;;;;;4982008;28;20105;-64
2021/12/19 14:54:09;;;;;;;18.15;10.63;;;;;;;;;;4985009;28;20055;-65
2021/12/19 14:56:36;;;;;;;16.63;10.73;;;;;;;;;;4986645;28;20055;-65
2021/12/19 14:59:04;;;;;;;17.35;11.02;;;;;;;;;;4987310;28;20105;-65
2021/12/19 15:01:36;;;;;;;17.83;10.75;;;;;;;;;;4984251;28;20050;-67
2021/12/19 15:04:12;;;;;;;14.40;8.90;;;;;;;;;;4981192;28;20114;-65
2021/12/19 15:06:42;;;;;;;19.15;10.20;;;;;;;;;;4987228;28;20046;-67
2021/12/19 15:09:14;;;;;;;18.48;9.38;;;;;;;;;;4983199;28;20050;-67
2021/12/19 15:11:41;;;;;;;16.08;9.55;;;;;;;;;;4987871;28;20078;-65
2021/12/19 15:14:09;;;;;;;16.13;9.82;;;;;;;;;;4980387;28;20058;-65
2021/12/19 15:16:36;;;;;;;16.88;10.63;;;;;;;;;;4980689;28;20055;-64
2021/12/19 15:19:04;;;;;;;16.83;9.23;;;;;;;;;;4979616;28;20133;-66
2021/12/19 15:21:31;;;;;;;15.77;9.25;;;;;;;;;;4982122;28;20046;-65
2021/12/19 15:23:59;;;;;;;14.27;10.50;;;;;;;;;;4979977;28;20047;-67
2021/12/19 15:26:27;;;;;;;18.95;9.70;;;;;;;;;;4987859;28;20042;-71
2021/12/19 15:28:57;;;;;;;17.67;10.27;;;;;;;;;;4988391;28;20047;-70
2021/12/19 15:31:24;;;;;;;14.57;9.63;;;;;;;;;;4994610;28;20065;-71
2021/12/19 15:33:52;;;;;;;17.88;10.93;;;;;;;;;;4992149;28;20027;-69
2021/12/19 15:36:19;;;;;;;16.33;10.43;;;;;;;;;;4993150;28;20059;-68
2021/12/19 15:38:47;;;;;;;17.00;10.80;;;;;;;;;;4994073;28;20031;-68
2021/12/19 15:41:14;;;;;;;18.65;11.00;;;;;;;;;;4990623;28;20039;-68
2021/12/19 15:43:40;;;;;;;20.15;10.57;;;;;;;;;;4994192;28;20035;-65
2021/12/19 15:46:07;;;;;;;20.33;11.88;;;;;;;;;;4989009;28;20048;-64
2021/12/19 15:48:33;;;;;;;23.88;13.43;;;;;;;;;;4976907;28;20082;-64
2021/12/19 15:51:00;;;;;;;21.08;12.35;;;;;;;;;;4976560;28;20051;-65
2021/12/19 15:53:27;;;;;;;19.80;11.38;;;;;;;;;;4979025;28;20050;-65
2021/12/19 15:55:54;;;;;;;23.60;11.75;;;;;;;;;;4975336;28;20082;-64